sensor_id;sensor_type;location;lat;lon;timestamp;pressure;altitude;pressure_sealevel;temperature;humidity
29909;BME280;36247;51.952;6.146;2022-08-21T00:02:24;101567.81;;;15.33;100.00
29909;BME280;36247;51.952;6.146;2022-08-21T00:04:50;101572.13;;;15.10;100.00
29909;BME280;36247;51.952;6.146;2022-08-21T00:07:18;101566.69;;;14.96;100.00
29909;BME280;36247;51.952;6.146;2022-08-21T00:09:44;101566.56;;;14.82;100.00
29909;BME280;36247;51.952;6.146;2022-08-21T00:12:10;101572.63;;;14.62;100.00
29909;BME280;36247;51.952;6.146;2022-08-21T00:14:36;101569.28;;;14.88;100.00
29909;BME280;36247;51.952;6.146;2022-08-21T00:17:03;101573.91;;;15.11;100.00
29909;BME280;36247;51.952;6.146;2022-08-21T00:19:30;101566.06;;;15.42;100.00
29909;BME280;36247;51.952;6.146;2022-08-21T00:21:56;101568.69;;;15.31;100.00
29909;BME280;36247;51.952;6.146;2022-08-21T00:24:22;101574.91;;;15.31;100.00
29909;BME280;36247;51.952;6.146;2022-08-21T00:26:48;101569.50;;;15.16;100.00
29909;BME280;36247;51.952;6.146;2022-08-21T00:29:14;101564.97;;;15.06;100.00
29909;BME280;36247;51.952;6.146;2022-08-21T00:31:41;101566.00;;;15.25;100.00
29909;BME280;36247;51.952;6.146;2022-08-21T00:34:07;101558.88;;;15.28;100.00
29909;BME280;36247;51.952;6.146;2022-08-21T00:36:33;101561.41;;;15.05;100.00
29909;BME280;36247;51.952;6.146;2022-08-21T00:39:00;101555.22;;;15.06;100.00
29909;BME280;36247;51.952;6.146;2022-08-21T00:41:25;101556.03;;;14.99;100.00
29909;BME280;36247;51.952;6.146;2022-08-21T00:43:52;101555.13;;;14.97;100.00
29909;BME280;36247;51.952;6.146;2022-08-21T00:46:17;101558.59;;;14.85;100.00
29909;BME280;36247;51.952;6.146;2022-08-21T00:48:44;101561.16;;;14.70;100.00
29909;BME280;36247;51.952;6.146;2022-08-21T00:51:16;101555.81;;;14.70;100.00
29909;BME280;36247;51.952;6.146;2022-08-21T00:53:49;101557.56;;;14.66;100.00
29909;BME280;36247;51.952;6.146;2022-08-21T00:56:18;101561.00;;;14.54;100.00
29909;BME280;36247;51.952;6.146;2022-08-21T00:58:44;101557.44;;;14.58;100.00
29909;BME280;36247;51.952;6.146;2022-08-21T01:01:10;101557.34;;;14.44;100.00
29909;BME280;36247;51.952;6.146;2022-08-21T01:03:36;101554.91;;;14.65;100.00
29909;BME280;36247;51.952;6.146;2022-08-21T01:06:03;101555.00;;;14.80;100.00
29909;BME280;36247;51.952;6.146;2022-08-21T01:08:31;101552.38;;;14.86;100.00
29909;BME280;36247;51.952;6.146;2022-08-21T01:10:58;101548.00;;;14.93;100.00
29909;BME280;36247;51.952;6.146;2022-08-21T01:15:48;101550.66;;;14.91;100.00
29909;BME280;36247;51.952;6.146;2022-08-21T01:18:15;101549.75;;;14.94;100.00
29909;BME280;36247;51.952;6.146;2022-08-21T01:23:30;101549.56;;;14.63;100.00
29909;BME280;36247;51.952;6.146;2022-08-21T01:25:55;101550.31;;;14.53;100.00
29909;BME280;36247;51.952;6.146;2022-08-21T01:28:22;101555.63;;;14.51;100.00
29909;BME280;36247;51.952;6.146;2022-08-21T01:30:51;101552.84;;;14.42;100.00
29909;BME280;36247;51.952;6.146;2022-08-21T01:33:22;101559.13;;;14.44;100.00
29909;BME280;36247;51.952;6.146;2022-08-21T01:35:49;101561.88;;;14.56;100.00
29909;BME280;36247;51.952;6.146;2022-08-21T01:38:14;101567.19;;;14.53;100.00
29909;BME280;36247;51.952;6.146;2022-08-21T01:40:40;101569.75;;;14.42;100.00
29909;BME280;36247;51.952;6.146;2022-08-21T01:43:05;101563.59;;;14.48;100.00
29909;BME280;36247;51.952;6.146;2022-08-21T01:45:31;101556.53;;;14.53;100.00
29909;BME280;36247;51.952;6.146;2022-08-21T01:47:56;101551.09;;;14.41;100.00
29909;BME280;36247;51.952;6.146;2022-08-21T01:50:22;101552.69;;;14.23;100.00
29909;BME280;36247;51.952;6.146;2022-08-21T01:52:49;101550.84;;;14.16;100.00
29909;BME280;36247;51.952;6.146;2022-08-21T01:55:16;101546.22;;;14.00;100.00
29909;BME280;36247;51.952;6.146;2022-08-21T01:57:42;101548.97;;;14.07;100.00
29909;BME280;36247;51.952;6.146;2022-08-21T02:00:11;101553.56;;;14.22;100.00
29909;BME280;36247;51.952;6.146;2022-08-21T02:02:39;101551.69;;;14.14;100.00
29909;BME280;36247;51.952;6.146;2022-08-21T02:05:05;101556.03;;;14.02;100.00
29909;BME280;36247;51.952;6.146;2022-08-21T02:07:43;101555.78;;;13.82;100.00
29909;BME280;36247;51.952;6.146;2022-08-21T02:10:12;101550.53;;;13.87;100.00
29909;BME280;36247;51.952;6.146;2022-08-21T02:12:38;101546.25;;;14.03;100.00
29909;BME280;36247;51.952;6.146;2022-08-21T02:15:06;101549.84;;;14.05;100.00
29909;BME280;36247;51.952;6.146;2022-08-21T02:17:44;101546.97;;;13.89;100.00
29909;BME280;36247;51.952;6.146;2022-08-21T02:20:14;101542.44;;;13.79;100.00
29909;BME280;36247;51.952;6.146;2022-08-21T02:22:40;101546.72;;;13.65;100.00
29909;BME280;36247;51.952;6.146;2022-08-21T02:25:06;101549.44;;;13.71;100.00
29909;BME280;36247;51.952;6.146;2022-08-21T02:27:38;101545.13;;;13.82;100.00
29909;BME280;36247;51.952;6.146;2022-08-21T02:30:04;101535.56;;;14.00;100.00
29909;BME280;36247;51.952;6.146;2022-08-21T02:32:30;101537.53;;;14.19;100.00
29909;BME280;36247;51.952;6.146;2022-08-21T02:34:55;101537.47;;;14.11;100.00
29909;BME280;36247;51.952;6.146;2022-08-21T02:37:21;101534.69;;;13.99;100.00
29909;BME280;36247;51.952;6.146;2022-08-21T02:39:48;101532.00;;;13.98;100.00
29909;BME280;36247;51.952;6.146;2022-08-21T02:42:13;101540.75;;;13.86;100.00
29909;BME280;36247;51.952;6.146;2022-08-21T02:44:39;101529.84;;;13.66;100.00
29909;BME280;36247;51.952;6.146;2022-08-21T02:47:04;101527.84;;;13.48;100.00
29909;BME280;36247;51.952;6.146;2022-08-21T02:49:30;101536.78;;;13.53;100.00
29909;BME280;36247;51.952;6.146;2022-08-21T02:51:55;101524.69;;;13.78;100.00
29909;BME280;36247;51.952;6.146;2022-08-21T02:54:21;101523.94;;;13.90;100.00
29909;BME280;36247;51.952;6.146;2022-08-21T02:56:46;101523.94;;;13.91;100.00
29909;BME280;36247;51.952;6.146;2022-08-21T02:59:11;101523.19;;;14.05;100.00
29909;BME280;36247;51.952;6.146;2022-08-21T03:01:37;101530.13;;;13.90;100.00
29909;BME280;36247;51.952;6.146;2022-08-21T03:04:03;101530.13;;;13.89;100.00
29909;BME280;36247;51.952;6.146;2022-08-21T03:06:29;101525.63;;;13.85;100.00
29909;BME280;36247;51.952;6.146;2022-08-21T03:08:55;101518.41;;;13.74;100.00
29909;BME280;36247;51.952;6.146;2022-08-21T03:11:20;101526.41;;;13.74;100.00
29909;BME280;36247;51.952;6.146;2022-08-21T03:13:46;101517.53;;;13.75;100.00
29909;BME280;36247;51.952;6.146;2022-08-21T03:16:11;101508.63;;;13.70;100.00
29909;BME280;36247;51.952;6.146;2022-08-21T03:18:37;101515.72;;;13.73;100.00
29909;BME280;36247;51.952;6.146;2022-08-21T03:21:04;101514.00;;;13.75;100.00
29909;BME280;36247;51.952;6.146;2022-08-21T03:23:30;101517.19;;;13.48;100.00
29909;BME280;36247;51.952;6.146;2022-08-21T03:25:56;101513.25;;;13.21;100.00
29909;BME280;36247;51.952;6.146;2022-08-21T03:28:22;101521.03;;;13.05;100.00
29909;BME280;36247;51.952;6.146;2022-08-21T03:30:49;101520.06;;;12.99;100.00
29909;BME280;36247;51.952;6.146;2022-08-21T03:33:15;101517.44;;;13.02;100.00
29909;BME280;36247;51.952;6.146;2022-08-21T03:35:47;101521.09;;;13.10;100.00
29909;BME280;36247;51.952;6.146;2022-08-21T03:38:14;101516.63;;;13.08;100.00
29909;BME280;36247;51.952;6.146;2022-08-21T03:40:41;101513.00;;;13.02;100.00
29909;BME280;36247;51.952;6.146;2022-08-21T03:43:07;101507.56;;;12.93;100.00
29909;BME280;36247;51.952;6.146;2022-08-21T03:45:35;101514.72;;;12.96;100.00
29909;BME280;36247;51.952;6.146;2022-08-21T03:48:03;101516.34;;;12.87;100.00
29909;BME280;36247;51.952;6.146;2022-08-21T03:50:33;101519.41;;;13.14;100.00
29909;BME280;36247;51.952;6.146;2022-08-21T03:52:59;101517.13;;;13.42;100.00
29909;BME280;36247;51.952;6.146;2022-08-21T03:55:25;101515.16;;;13.30;100.00
29909;BME280;36247;51.952;6.146;2022-08-21T03:57:52;101520.44;;;13.27;100.00
29909;BME280;36247;51.952;6.146;2022-08-21T04:00:19;101519.53;;;13.25;100.00
29909;BME280;36247;51.952;6.146;2022-08-21T04:02:45;101518.41;;;13.09;100.00
29909;BME280;36247;51.952;6.146;2022-08-21T04:05:13;101519.09;;;12.95;100.00
29909;BME280;36247;51.952;6.146;2022-08-21T04:07:39;101510.84;;;12.75;100.00
29909;BME280;36247;51.952;6.146;2022-08-21T04:10:06;101511.00;;;12.86;100.00
29909;BME280;36247;51.952;6.146;2022-08-21T04:12:32;101513.00;;;13.01;100.00
29909;BME280;36247;51.952;6.146;2022-08-21T04:14:58;101511.38;;;13.12;100.00
29909;BME280;36247;51.952;6.146;2022-08-21T04:17:23;101509.59;;;13.11;100.00
29909;BME280;36247;51.952;6.146;2022-08-21T04:19:49;101512.34;;;13.19;100.00
29909;BME280;36247;51.952;6.146;2022-08-21T04:22:15;101514.16;;;13.21;100.00
29909;BME280;36247;51.952;6.146;2022-08-21T04:24:41;101506.38;;;13.34;100.00
29909;BME280;36247;51.952;6.146;2022-08-21T04:27:06;101504.75;;;13.45;100.00
29909;BME280;36247;51.952;6.146;2022-08-21T04:29:32;101505.44;;;13.30;100.00
29909;BME280;36247;51.952;6.146;2022-08-21T04:31:57;101509.22;;;13.49;100.00
29909;BME280;36247;51.952;6.146;2022-08-21T04:34:22;101512.09;;;13.65;100.00
29909;BME280;36247;51.952;6.146;2022-08-21T04:36:48;101509.34;;;13.55;100.00
29909;BME280;36247;51.952;6.146;2022-08-21T04:39:13;101514.59;;;13.54;100.00
29909;BME280;36247;51.952;6.146;2022-08-21T04:41:39;101506.81;;;13.68;100.00
29909;BME280;36247;51.952;6.146;2022-08-21T04:44:04;101514.38;;;13.34;100.00
29909;BME280;36247;51.952;6.146;2022-08-21T04:46:30;101507.59;;;13.59;100.00
29909;BME280;36247;51.952;6.146;2022-08-21T04:48:55;101512.84;;;13.54;100.00
29909;BME280;36247;51.952;6.146;2022-08-21T04:51:27;101512.84;;;13.53;100.00
29909;BME280;36247;51.952;6.146;2022-08-21T04:54:09;101507.69;;;13.67;100.00
29909;BME280;36247;51.952;6.146;2022-08-21T04:56:42;101512.53;;;13.33;100.00
29909;BME280;36247;51.952;6.146;2022-08-21T04:59:14;101507.97;;;13.24;100.00
29909;BME280;36247;51.952;6.146;2022-08-21T05:01:42;101505.22;;;13.16;100.00
29909;BME280;36247;51.952;6.146;2022-08-21T05:04:12;101507.91;;;13.19;100.00
29909;BME280;36247;51.952;6.146;2022-08-21T05:06:39;101499.97;;;13.22;100.00
29909;BME280;36247;51.952;6.146;2022-08-21T05:09:07;101506.28;;;13.28;100.00
29909;BME280;36247;51.952;6.146;2022-08-21T05:11:35;101497.19;;;13.12;100.00
29909;BME280;36247;51.952;6.146;2022-08-21T05:14:02;101499.03;;;13.17;100.00
29909;BME280;36247;51.952;6.146;2022-08-21T05:16:28;101496.34;;;13.16;100.00
29909;BME280;36247;51.952;6.146;2022-08-21T05:18:54;101493.78;;;13.22;100.00
29909;BME280;36247;51.952;6.146;2022-08-21T05:21:20;101498.09;;;13.12;100.00
29909;BME280;36247;51.952;6.146;2022-08-21T05:23:46;101497.97;;;13.06;100.00
29909;BME280;36247;51.952;6.146;2022-08-21T05:26:11;101496.50;;;13.27;100.00
29909;BME280;36247;51.952;6.146;2022-08-21T05:28:37;101506.47;;;13.40;100.00
29909;BME280;36247;51.952;6.146;2022-08-21T05:31:03;101494.25;;;13.57;100.00
29909;BME280;36247;51.952;6.146;2022-08-21T05:33:28;101496.09;;;13.63;100.00
29909;BME280;36247;51.952;6.146;2022-08-21T05:35:54;101502.41;;;13.73;100.00
29909;BME280;36247;51.952;6.146;2022-08-21T05:38:24;101498.94;;;13.79;100.00
29909;BME280;36247;51.952;6.146;2022-08-21T05:40:52;101516.84;;;13.93;100.00
29909;BME280;36247;51.952;6.146;2022-08-21T05:43:19;101519.63;;;14.06;100.00
29909;BME280;36247;51.952;6.146;2022-08-21T05:45:44;101519.81;;;14.23;100.00
29909;BME280;36247;51.952;6.146;2022-08-21T05:48:13;101525.31;;;14.43;100.00
29909;BME280;36247;51.952;6.146;2022-08-21T05:50:40;101521.97;;;14.64;100.00
29909;BME280;36247;51.952;6.146;2022-08-21T05:53:05;101528.34;;;14.83;100.00
29909;BME280;36247;51.952;6.146;2022-08-21T05:55:31;101531.06;;;14.91;100.00
29909;BME280;36247;51.952;6.146;2022-08-21T05:57:56;101533.00;;;15.15;100.00
29909;BME280;36247;51.952;6.146;2022-08-21T06:00:22;101525.00;;;15.15;100.00
29909;BME280;36247;51.952;6.146;2022-08-21T06:02:49;101523.31;;;15.29;100.00
29909;BME280;36247;51.952;6.146;2022-08-21T06:05:16;101515.28;;;15.29;100.00
29909;BME280;36247;51.952;6.146;2022-08-21T06:07:41;101520.69;;;15.40;100.00
29909;BME280;36247;51.952;6.146;2022-08-21T06:10:07;101528.69;;;15.43;100.00
29909;BME280;36247;51.952;6.146;2022-08-21T06:12:32;101521.66;;;15.56;100.00
29909;BME280;36247;51.952;6.146;2022-08-21T06:14:58;101521.66;;;15.62;100.00
29909;BME280;36247;51.952;6.146;2022-08-21T06:17:23;101520.81;;;15.74;100.00
29909;BME280;36247;51.952;6.146;2022-08-21T06:19:53;101518.19;;;15.79;100.00
29909;BME280;36247;51.952;6.146;2022-08-21T06:22:19;101518.22;;;15.85;100.00
29909;BME280;36247;51.952;6.146;2022-08-21T06:24:45;101520.03;;;15.95;100.00
29909;BME280;36247;51.952;6.146;2022-08-21T06:27:11;101522.69;;;15.98;100.00
29909;BME280;36247;51.952;6.146;2022-08-21T06:29:36;101521.81;;;15.90;100.00
29909;BME280;36247;51.952;6.146;2022-08-21T06:32:03;101527.16;;;15.93;100.00
29909;BME280;36247;51.952;6.146;2022-08-21T06:34:29;101520.91;;;15.93;100.00
29909;BME280;36247;51.952;6.146;2022-08-21T06:36:55;101527.19;;;16.12;100.00
29909;BME280;36247;51.952;6.146;2022-08-21T06:39:21;101524.50;;;16.06;100.00
29909;BME280;36247;51.952;6.146;2022-08-21T06:41:47;101529.00;;;16.36;100.00
29909;BME280;36247;51.952;6.146;2022-08-21T06:44:15;101529.91;;;16.41;100.00
29909;BME280;36247;51.952;6.146;2022-08-21T06:46:41;101526.34;;;16.50;100.00
29909;BME280;36247;51.952;6.146;2022-08-21T06:49:08;101522.78;;;16.43;100.00
29909;BME280;36247;51.952;6.146;2022-08-21T06:51:33;101518.31;;;16.53;100.00
29909;BME280;36247;51.952;6.146;2022-08-21T06:53:59;101533.47;;;16.71;100.00
29909;BME280;36247;51.952;6.146;2022-08-21T06:56:24;101532.59;;;16.87;100.00
29909;BME280;36247;51.952;6.146;2022-08-21T06:58:49;101529.06;;;16.88;100.00
29909;BME280;36247;51.952;6.146;2022-08-21T07:01:15;101527.22;;;17.01;100.00
29909;BME280;36247;51.952;6.146;2022-08-21T07:03:42;101530.78;;;17.13;100.00
29909;BME280;36247;51.952;6.146;2022-08-21T07:06:09;101531.72;;;16.88;100.00
29909;BME280;36247;51.952;6.146;2022-08-21T07:08:36;101520.91;;;17.27;100.00
29909;BME280;36247;51.952;6.146;2022-08-21T07:11:07;101533.38;;;17.39;100.00
29909;BME280;36247;51.952;6.146;2022-08-21T07:13:34;101534.28;;;17.42;100.00
29909;BME280;36247;51.952;6.146;2022-08-21T07:15:59;101532.44;;;17.48;100.00
29909;BME280;36247;51.952;6.146;2022-08-21T07:18:25;101528.00;;;17.42;100.00
29909;BME280;36247;51.952;6.146;2022-08-21T07:20:50;101528.00;;;17.39;100.00
29909;BME280;36247;51.952;6.146;2022-08-21T07:23:26;101527.03;;;17.68;100.00
29909;BME280;36247;51.952;6.146;2022-08-21T07:25:53;101526.91;;;17.94;100.00
29909;BME280;36247;51.952;6.146;2022-08-21T07:28:18;101522.44;;;17.87;100.00
29909;BME280;36247;51.952;6.146;2022-08-21T07:30:44;101524.22;;;17.94;100.00
29909;BME280;36247;51.952;6.146;2022-08-21T07:33:09;101516.16;;;18.00;100.00
29909;BME280;36247;51.952;6.146;2022-08-21T07:35:35;101517.78;;;18.27;100.00
29909;BME280;36247;51.952;6.146;2022-08-21T07:38:00;101516.88;;;18.24;100.00
29909;BME280;36247;51.952;6.146;2022-08-21T07:40:25;101508.84;;;18.22;100.00
29909;BME280;36247;51.952;6.146;2022-08-21T07:42:51;101503.38;;;18.36;100.00
29909;BME280;36247;51.952;6.146;2022-08-21T07:45:19;101505.03;;;18.56;100.00
29909;BME280;36247;51.952;6.146;2022-08-21T07:47:46;101510.41;;;18.56;100.00
29909;BME280;36247;51.952;6.146;2022-08-21T07:50:12;101498.75;;;18.57;100.00
29909;BME280;36247;51.952;6.146;2022-08-21T07:52:37;101500.34;;;18.76;100.00
29909;BME280;36247;51.952;6.146;2022-08-21T07:55:03;101496.75;;;18.79;100.00
29909;BME280;36247;51.952;6.146;2022-08-21T07:57:29;101502.06;;;18.88;100.00
29909;BME280;36247;51.952;6.146;2022-08-21T07:59:54;101507.41;;;18.90;100.00
29909;BME280;36247;51.952;6.146;2022-08-21T08:02:28;101504.50;;;19.11;100.00
29909;BME280;36247;51.952;6.146;2022-08-21T08:04:58;101495.63;;;19.03;100.00
29909;BME280;36247;51.952;6.146;2022-08-21T08:07:23;101498.03;;;19.31;100.00
29909;BME280;36247;51.952;6.146;2022-08-21T08:09:49;101495.97;;;19.51;100.00
29909;BME280;36247;51.952;6.146;2022-08-21T08:12:14;101507.19;;;19.13;100.00
29909;BME280;36247;51.952;6.146;2022-08-21T08:14:40;101507.50;;;18.76;100.00
29909;BME280;36247;51.952;6.146;2022-08-21T08:17:05;101505.69;;;18.85;100.00
29909;BME280;36247;51.952;6.146;2022-08-21T08:19:31;101499.91;;;19.21;100.00
29909;BME280;36247;51.952;6.146;2022-08-21T08:21:56;101503.66;;;19.05;100.00
29909;BME280;36247;51.952;6.146;2022-08-21T08:24:22;101509.06;;;19.01;100.00
29909;BME280;36247;51.952;6.146;2022-08-21T08:26:47;101510.09;;;18.85;100.00
29909;BME280;36247;51.952;6.146;2022-08-21T08:29:13;101499.84;;;19.29;100.00
29909;BME280;36247;51.952;6.146;2022-08-21T08:31:38;101494.88;;;19.68;100.00
29909;BME280;36247;51.952;6.146;2022-08-21T08:34:04;101490.69;;;19.45;100.00
29909;BME280;36247;51.952;6.146;2022-08-21T08:36:35;101490.50;;;19.59;100.00
29909;BME280;36247;51.952;6.146;2022-08-21T08:39:02;101492.91;;;19.81;100.00
29909;BME280;36247;51.952;6.146;2022-08-21T08:41:29;101489.44;;;19.71;100.00
29909;BME280;36247;51.952;6.146;2022-08-21T08:43:59;101490.06;;;19.93;100.00
29909;BME280;36247;51.952;6.146;2022-08-21T08:46:41;101493.97;;;19.67;100.00
29909;BME280;36247;51.952;6.146;2022-08-21T08:49:35;101490.63;;;20.71;100.00
29909;BME280;36247;51.952;6.146;2022-08-21T08:52:15;101487.16;;;20.63;97.94
29909;BME280;36247;51.952;6.146;2022-08-21T08:54:46;101486.97;;;20.74;98.04
29909;BME280;36247;51.952;6.146;2022-08-21T08:57:19;101484.97;;;20.32;99.24
29909;BME280;36247;51.952;6.146;2022-08-21T08:59:48;101490.84;;;20.57;98.46
29909;BME280;36247;51.952;6.146;2022-08-21T09:02:16;101486.34;;;20.56;97.69
29909;BME280;36247;51.952;6.146;2022-08-21T09:04:43;101491.50;;;20.17;99.75
29909;BME280;36247;51.952;6.146;2022-08-21T09:09:51;101492.28;;;21.25;95.09
29909;BME280;36247;51.952;6.146;2022-08-21T09:12:43;101478.81;;;21.67;94.23
29909;BME280;36247;51.952;6.146;2022-08-21T09:15:31;101483.84;;;22.24;91.75
29909;BME280;36247;51.952;6.146;2022-08-21T09:23:30;101478.91;;;22.43;87.55
29909;BME280;36247;51.952;6.146;2022-08-21T09:26:15;101480.47;;;21.75;89.89
29909;BME280;36247;51.952;6.146;2022-08-21T09:28:42;101473.78;;;22.30;86.39
29909;BME280;36247;51.952;6.146;2022-08-21T09:31:35;101456.66;;;23.32;83.96
29909;BME280;36247;51.952;6.146;2022-08-21T09:34:04;101469.94;;;22.03;83.28
29909;BME280;36247;51.952;6.146;2022-08-21T09:36:37;101470.13;;;22.67;82.19
29909;BME280;36247;51.952;6.146;2022-08-21T09:39:04;101456.97;;;23.52;80.14
29909;BME280;36247;51.952;6.146;2022-08-21T09:41:32;101467.59;;;23.88;81.45
29909;BME280;36247;51.952;6.146;2022-08-21T09:44:00;101466.00;;;22.87;81.35
29909;BME280;36247;51.952;6.146;2022-08-21T09:46:26;101474.25;;;22.48;84.07
29909;BME280;36247;51.952;6.146;2022-08-21T09:48:55;101473.66;;;23.97;78.61
29909;BME280;36247;51.952;6.146;2022-08-21T09:51:24;101468.41;;;23.92;77.80
29909;BME280;36247;51.952;6.146;2022-08-21T09:53:53;101469.06;;;24.54;75.00
29909;BME280;36247;51.952;6.146;2022-08-21T09:56:27;101484.94;;;24.38;74.87
29909;BME280;36247;51.952;6.146;2022-08-21T10:01:50;101473.50;;;25.08;72.98
29909;BME280;36247;51.952;6.146;2022-08-21T10:04:23;101473.16;;;24.92;70.33
29909;BME280;36247;51.952;6.146;2022-08-21T10:06:49;101466.53;;;25.50;72.53
29909;BME280;36247;51.952;6.146;2022-08-21T10:09:19;101479.84;;;24.55;71.94
29909;BME280;36247;51.952;6.146;2022-08-21T10:12:19;101481.13;;;22.94;78.43
29909;BME280;36247;51.952;6.146;2022-08-21T10:14:58;101484.19;;;22.82;79.04
29909;BME280;36247;51.952;6.146;2022-08-21T10:20:05;101474.41;;;22.76;79.26
29909;BME280;36247;51.952;6.146;2022-08-21T10:25:21;101470.88;;;25.29;69.29
29909;BME280;36247;51.952;6.146;2022-08-21T10:28:10;101464.94;;;25.44;64.83
29909;BME280;36247;51.952;6.146;2022-08-21T10:37:21;101456.97;;;25.63;66.08
29909;BME280;36247;51.952;6.146;2022-08-21T10:42:38;101457.03;;;25.84;63.18
29909;BME280;36247;51.952;6.146;2022-08-21T10:45:36;101455.63;;;25.51;63.79
29909;BME280;36247;51.952;6.146;2022-08-21T10:48:07;101455.06;;;25.65;63.93
29909;BME280;36247;51.952;6.146;2022-08-21T10:50:42;101470.84;;;24.28;67.75
29909;BME280;36247;51.952;6.146;2022-08-21T11:01:09;101471.50;;;23.78;65.21
29909;BME280;36247;51.952;6.146;2022-08-21T11:03:44;101470.75;;;23.43;68.10
29909;BME280;36247;51.952;6.146;2022-08-21T11:06:20;101471.63;;;23.73;66.25
29909;BME280;36247;51.952;6.146;2022-08-21T11:08:54;101469.16;;;25.28;64.28
29909;BME280;36247;51.952;6.146;2022-08-21T11:11:30;101466.66;;;25.69;58.85
29909;BME280;36247;51.952;6.146;2022-08-21T11:14:10;101467.22;;;25.06;58.51
29909;BME280;36247;51.952;6.146;2022-08-21T11:16:48;101474.47;;;25.31;56.86
29909;BME280;36247;51.952;6.146;2022-08-21T11:22:10;101467.34;;;24.24;61.63
29909;BME280;36247;51.952;6.146;2022-08-21T11:25:06;101456.69;;;25.47;56.68
29909;BME280;36247;51.952;6.146;2022-08-21T11:30:14;101457.91;;;26.08;49.59
29909;BME280;36247;51.952;6.146;2022-08-21T11:43:25;101448.34;;;28.37;47.42
29909;BME280;36247;51.952;6.146;2022-08-21T11:46:00;101446.22;;;26.71;51.25
29909;BME280;36247;51.952;6.146;2022-08-21T11:48:45;101447.69;;;27.76;47.22
29909;BME280;36247;51.952;6.146;2022-08-21T11:51:30;101437.56;;;27.61;47.18
29909;BME280;36247;51.952;6.146;2022-08-21T11:54:05;101443.38;;;28.28;43.69
29909;BME280;36247;51.952;6.146;2022-08-21T11:56:41;101446.31;;;26.47;47.00
29909;BME280;36247;51.952;6.146;2022-08-21T11:59:19;101448.72;;;25.43;51.21
29909;BME280;36247;51.952;6.146;2022-08-21T12:01:48;101444.88;;;24.99;52.53
29909;BME280;36247;51.952;6.146;2022-08-21T12:06:53;101441.84;;;25.09;52.20
29909;BME280;36247;51.952;6.146;2022-08-21T12:09:35;101438.56;;;26.38;48.67
29909;BME280;36247;51.952;6.146;2022-08-21T12:12:11;101435.34;;;26.71;47.59
29909;BME280;36247;51.952;6.146;2022-08-21T12:14:47;101440.81;;;27.50;45.42
29909;BME280;36247;51.952;6.146;2022-08-21T12:17:37;101446.50;;;25.76;49.76
29909;BME280;36247;51.952;6.146;2022-08-21T12:20:25;101447.97;;;26.50;48.69
29909;BME280;36247;51.952;6.146;2022-08-21T12:23:02;101439.75;;;27.72;45.89
29909;BME280;36247;51.952;6.146;2022-08-21T12:25:37;101451.31;;;25.92;50.18
29909;BME280;36247;51.952;6.146;2022-08-21T12:28:12;101451.00;;;25.54;50.47
29909;BME280;36247;51.952;6.146;2022-08-21T12:30:48;101446.25;;;27.50;46.36
29909;BME280;36247;51.952;6.146;2022-08-21T12:33:39;101442.72;;;28.23;42.76
29909;BME280;36247;51.952;6.146;2022-08-21T12:36:13;101452.38;;;29.33;40.77
29909;BME280;36247;51.952;6.146;2022-08-21T12:39:00;101452.81;;;28.56;39.26
29909;BME280;36247;51.952;6.146;2022-08-21T12:41:58;101451.66;;;28.96;39.23
29909;BME280;36247;51.952;6.146;2022-08-21T12:44:35;101450.53;;;28.83;40.09
29909;BME280;36247;51.952;6.146;2022-08-21T12:47:11;101460.88;;;26.67;46.53
29909;BME280;36247;51.952;6.146;2022-08-21T12:50:03;101449.47;;;26.79;48.61
29909;BME280;36247;51.952;6.146;2022-08-21T12:52:35;101445.09;;;26.75;45.34
29909;BME280;36247;51.952;6.146;2022-08-21T12:55:02;101448.03;;;26.91;45.57
29909;BME280;36247;51.952;6.146;2022-08-21T12:57:30;101445.19;;;28.81;40.20
29909;BME280;36247;51.952;6.146;2022-08-21T13:00:00;101443.66;;;29.92;40.21
29909;BME280;36247;51.952;6.146;2022-08-21T13:02:30;101444.22;;;29.16;39.73
29909;BME280;36247;51.952;6.146;2022-08-21T13:04:57;101449.25;;;27.82;41.42
29909;BME280;36247;51.952;6.146;2022-08-21T13:07:30;101439.09;;;29.43;37.55
29909;BME280;36247;51.952;6.146;2022-08-21T13:10:00;101447.13;;;27.89;39.88
29909;BME280;36247;51.952;6.146;2022-08-21T13:12:27;101446.56;;;26.62;43.35
29909;BME280;36247;51.952;6.146;2022-08-21T13:14:56;101442.41;;;26.32;43.98
29909;BME280;36247;51.952;6.146;2022-08-21T13:17:24;101444.22;;;26.32;43.93
29909;BME280;36247;51.952;6.146;2022-08-21T13:19:55;101430.19;;;28.01;39.84
29909;BME280;36247;51.952;6.146;2022-08-21T13:22:21;101440.03;;;27.27;41.74
29909;BME280;36247;51.952;6.146;2022-08-21T13:24:47;101434.56;;;28.93;39.72
29909;BME280;36247;51.952;6.146;2022-08-21T13:27:28;101434.78;;;30.19;37.78
29909;BME280;36247;51.952;6.146;2022-08-21T13:32:35;101426.91;;;30.45;33.63
29909;BME280;36247;51.952;6.146;2022-08-21T13:37:45;101441.25;;;30.02;33.15
29909;BME280;36247;51.952;6.146;2022-08-21T13:40:19;101439.41;;;30.02;33.22
29909;BME280;36247;51.952;6.146;2022-08-21T13:42:47;101446.38;;;30.38;32.99
29909;BME280;36247;51.952;6.146;2022-08-21T13:45:22;101453.34;;;28.81;35.46
29909;BME280;36247;51.952;6.146;2022-08-21T13:47:47;101446.81;;;27.76;37.14
29909;BME280;36247;51.952;6.146;2022-08-21T13:50:15;101449.19;;;29.25;35.62
29909;BME280;36247;51.952;6.146;2022-08-21T13:52:55;101448.00;;;27.89;37.90
29909;BME280;36247;51.952;6.146;2022-08-21T13:55:25;101443.47;;;26.50;39.94
29909;BME280;36247;51.952;6.146;2022-08-21T13:58:00;101450.00;;;26.67;39.93